sensor_id;sensor_type;location;lat;lon;timestamp;temperature;humidity
22456;DHT22;11395;53.204;6.502;2023-02-15T00:01:23;22.90;55.00
22456;DHT22;11395;53.204;6.502;2023-02-15T00:03:49;22.90;55.00
22456;DHT22;11395;53.204;6.502;2023-02-15T00:06:15;22.80;55.00
22456;DHT22;11395;53.204;6.502;2023-02-15T00:08:42;22.70;55.10
22456;DHT22;11395;53.204;6.502;2023-02-15T00:11:10;22.70;55.10
22456;DHT22;11395;53.204;6.502;2023-02-15T00:13:37;22.60;55.10
22456;DHT22;11395;53.204;6.502;2023-02-15T00:16:09;22.60;55.20
22456;DHT22;11395;53.204;6.502;2023-02-15T00:18:35;22.50;55.30
22456;DHT22;11395;53.204;6.502;2023-02-15T00:21:07;22.40;55.30
22456;DHT22;11395;53.204;6.502;2023-02-15T00:23:35;22.40;55.40
22456;DHT22;11395;53.204;6.502;2023-02-15T00:26:09;22.40;55.50
22456;DHT22;11395;53.204;6.502;2023-02-15T00:28:36;22.30;55.50
22456;DHT22;11395;53.204;6.502;2023-02-15T00:31:10;22.20;55.60
22456;DHT22;11395;53.204;6.502;2023-02-15T00:33:37;22.20;55.60
22456;DHT22;11395;53.204;6.502;2023-02-15T00:36:05;22.10;55.70
22456;DHT22;11395;53.204;6.502;2023-02-15T00:38:32;22.10;55.80
22456;DHT22;11395;53.204;6.502;2023-02-15T00:41:01;22.10;55.90
22456;DHT22;11395;53.204;6.502;2023-02-15T00:43:28;22.00;55.90
22456;DHT22;11395;53.204;6.502;2023-02-15T00:45:55;21.90;56.00
22456;DHT22;11395;53.204;6.502;2023-02-15T00:48:21;21.90;56.10
22456;DHT22;11395;53.204;6.502;2023-02-15T00:50:53;21.90;56.20
22456;DHT22;11395;53.204;6.502;2023-02-15T00:53:20;21.80;56.10
22456;DHT22;11395;53.204;6.502;2023-02-15T00:55:46;21.70;56.20
22456;DHT22;11395;53.204;6.502;2023-02-15T00:58:14;21.70;56.30
22456;DHT22;11395;53.204;6.502;2023-02-15T01:00:42;21.70;56.30
22456;DHT22;11395;53.204;6.502;2023-02-15T01:03:09;21.60;56.30
22456;DHT22;11395;53.204;6.502;2023-02-15T01:05:36;21.60;56.40
22456;DHT22;11395;53.204;6.502;2023-02-15T01:08:04;21.60;56.60
22456;DHT22;11395;53.204;6.502;2023-02-15T01:10:30;21.50;56.60
22456;DHT22;11395;53.204;6.502;2023-02-15T01:12:57;21.50;56.60
22456;DHT22;11395;53.204;6.502;2023-02-15T01:15:23;21.40;56.60
22456;DHT22;11395;53.204;6.502;2023-02-15T01:17:50;21.40;56.50
22456;DHT22;11395;53.204;6.502;2023-02-15T01:20:24;21.30;56.50
22456;DHT22;11395;53.204;6.502;2023-02-15T01:22:51;21.30;56.60
22456;DHT22;11395;53.204;6.502;2023-02-15T01:25:18;21.30;56.60
22456;DHT22;11395;53.204;6.502;2023-02-15T01:27:45;21.30;56.60
22456;DHT22;11395;53.204;6.502;2023-02-15T01:30:13;21.20;57.00
22456;DHT22;11395;53.204;6.502;2023-02-15T01:32:40;21.10;56.70
22456;DHT22;11395;53.204;6.502;2023-02-15T01:35:08;21.10;57.40
22456;DHT22;11395;53.204;6.502;2023-02-15T01:37:35;21.10;56.90
22456;DHT22;11395;53.204;6.502;2023-02-15T01:40:03;21.00;56.90
22456;DHT22;11395;53.204;6.502;2023-02-15T01:42:30;20.90;56.90
22456;DHT22;11395;53.204;6.502;2023-02-15T01:45:05;20.90;57.20
22456;DHT22;11395;53.204;6.502;2023-02-15T01:52:58;20.90;56.80
22456;DHT22;11395;53.204;6.502;2023-02-15T01:55:28;20.80;56.60
22456;DHT22;11395;53.204;6.502;2023-02-15T01:57:56;20.80;56.70
22456;DHT22;11395;53.204;6.502;2023-02-15T02:00:22;20.70;56.70
22456;DHT22;11395;53.204;6.502;2023-02-15T02:02:50;20.70;56.70
22456;DHT22;11395;53.204;6.502;2023-02-15T02:05:24;20.70;56.70
22456;DHT22;11395;53.204;6.502;2023-02-15T02:07:52;20.60;56.70
22456;DHT22;11395;53.204;6.502;2023-02-15T02:10:22;20.60;56.70
22456;DHT22;11395;53.204;6.502;2023-02-15T02:12:58;20.60;56.80
22456;DHT22;11395;53.204;6.502;2023-02-15T02:15:47;20.50;56.80
22456;DHT22;11395;53.204;6.502;2023-02-15T02:24:53;20.40;56.90
22456;DHT22;11395;53.204;6.502;2023-02-15T02:27:41;20.40;57.00
22456;DHT22;11395;53.204;6.502;2023-02-15T02:38:35;20.30;57.10
22456;DHT22;11395;53.204;6.502;2023-02-15T02:45:19;20.20;57.10
22456;DHT22;11395;53.204;6.502;2023-02-15T02:47:30;20.20;57.10
22456;DHT22;11395;53.204;6.502;2023-02-15T02:50:01;20.20;57.10
22456;DHT22;11395;53.204;6.502;2023-02-15T02:52:37;20.10;57.10
22456;DHT22;11395;53.204;6.502;2023-02-15T02:55:06;20.10;57.10
22456;DHT22;11395;53.204;6.502;2023-02-15T02:57:36;20.00;57.00
22456;DHT22;11395;53.204;6.502;2023-02-15T03:00:04;20.00;57.10
22456;DHT22;11395;53.204;6.502;2023-02-15T03:02:39;20.00;57.20
22456;DHT22;11395;53.204;6.502;2023-02-15T03:05:11;19.90;57.10
22456;DHT22;11395;53.204;6.502;2023-02-15T03:07:41;19.90;57.10
22456;DHT22;11395;53.204;6.502;2023-02-15T03:10:09;19.90;57.10
22456;DHT22;11395;53.204;6.502;2023-02-15T03:12:37;19.80;57.20
22456;DHT22;11395;53.204;6.502;2023-02-15T03:15:10;19.80;57.20
22456;DHT22;11395;53.204;6.502;2023-02-15T03:17:44;19.80;57.20
22456;DHT22;11395;53.204;6.502;2023-02-15T03:20:15;19.70;57.30
22456;DHT22;11395;53.204;6.502;2023-02-15T03:23:03;19.70;57.40
22456;DHT22;11395;53.204;6.502;2023-02-15T03:25:36;19.70;57.50
22456;DHT22;11395;53.204;6.502;2023-02-15T03:28:18;19.60;57.60
22456;DHT22;11395;53.204;6.502;2023-02-15T03:30:49;19.60;57.60
22456;DHT22;11395;53.204;6.502;2023-02-15T03:33:18;19.60;57.70
22456;DHT22;11395;53.204;6.502;2023-02-15T03:35:52;19.60;57.60
22456;DHT22;11395;53.204;6.502;2023-02-15T03:38:48;19.60;57.80
22456;DHT22;11395;53.204;6.502;2023-02-15T03:41:13;19.50;58.50
22456;DHT22;11395;53.204;6.502;2023-02-15T03:48:58;19.40;58.00
22456;DHT22;11395;53.204;6.502;2023-02-15T03:51:29;19.40;57.90
22456;DHT22;11395;53.204;6.502;2023-02-15T03:54:14;19.40;58.00
22456;DHT22;11395;53.204;6.502;2023-02-15T03:57:06;19.30;58.00
22456;DHT22;11395;53.204;6.502;2023-02-15T03:59:51;19.30;58.20
22456;DHT22;11395;53.204;6.502;2023-02-15T04:03:05;19.30;58.20
22456;DHT22;11395;53.204;6.502;2023-02-15T04:05:32;19.20;58.20
22456;DHT22;11395;53.204;6.502;2023-02-15T04:07:59;19.30;58.00
22456;DHT22;11395;53.204;6.502;2023-02-15T04:10:26;19.30;58.20
22456;DHT22;11395;53.204;6.502;2023-02-15T04:13:10;19.30;57.90
22456;DHT22;11395;53.204;6.502;2023-02-15T04:15:36;19.40;58.00
22456;DHT22;11395;53.204;6.502;2023-02-15T04:18:21;19.40;57.90
22456;DHT22;11395;53.204;6.502;2023-02-15T04:20:47;19.60;58.50
22456;DHT22;11395;53.204;6.502;2023-02-15T04:23:32;19.70;57.60
22456;DHT22;11395;53.204;6.502;2023-02-15T04:26:16;19.80;57.40
22456;DHT22;11395;53.204;6.502;2023-02-15T04:28:43;20.00;57.10
22456;DHT22;11395;53.204;6.502;2023-02-15T04:31:09;20.10;56.80
22456;DHT22;11395;53.204;6.502;2023-02-15T04:33:35;20.30;56.50
22456;DHT22;11395;53.204;6.502;2023-02-15T04:36:03;20.40;56.30
22456;DHT22;11395;53.204;6.502;2023-02-15T04:38:29;20.50;56.20
22456;DHT22;11395;53.204;6.502;2023-02-15T04:40:55;20.50;56.10
22456;DHT22;11395;53.204;6.502;2023-02-15T04:43:22;20.60;56.10
22456;DHT22;11395;53.204;6.502;2023-02-15T04:45:49;20.60;55.90
22456;DHT22;11395;53.204;6.502;2023-02-15T04:48:17;20.70;55.90
22456;DHT22;11395;53.204;6.502;2023-02-15T04:50:44;20.70;55.80
22456;DHT22;11395;53.204;6.502;2023-02-15T04:53:11;20.70;55.80
22456;DHT22;11395;53.204;6.502;2023-02-15T04:55:37;20.80;55.80
22456;DHT22;11395;53.204;6.502;2023-02-15T04:58:03;20.80;55.70
22456;DHT22;11395;53.204;6.502;2023-02-15T05:00:29;20.80;55.60
22456;DHT22;11395;53.204;6.502;2023-02-15T05:02:55;20.80;55.50
22456;DHT22;11395;53.204;6.502;2023-02-15T05:05:21;20.90;55.20
22456;DHT22;11395;53.204;6.502;2023-02-15T05:07:48;21.00;55.00
22456;DHT22;11395;53.204;6.502;2023-02-15T05:10:14;21.10;54.70
22456;DHT22;11395;53.204;6.502;2023-02-15T05:12:40;21.20;54.60
22456;DHT22;11395;53.204;6.502;2023-02-15T05:15:07;21.20;54.50
22456;DHT22;11395;53.204;6.502;2023-02-15T05:17:33;21.30;54.40
22456;DHT22;11395;53.204;6.502;2023-02-15T05:19:59;21.40;54.90
22456;DHT22;11395;53.204;6.502;2023-02-15T05:22:25;21.50;54.80
22456;DHT22;11395;53.204;6.502;2023-02-15T05:24:52;21.60;53.90
22456;DHT22;11395;53.204;6.502;2023-02-15T05:27:36;21.70;53.70
22456;DHT22;11395;53.204;6.502;2023-02-15T05:30:21;21.90;53.60
22456;DHT22;11395;53.204;6.502;2023-02-15T05:32:47;22.00;53.50
22456;DHT22;11395;53.204;6.502;2023-02-15T05:35:15;22.10;53.40
22456;DHT22;11395;53.204;6.502;2023-02-15T05:37:41;22.20;53.20
22456;DHT22;11395;53.204;6.502;2023-02-15T05:40:08;22.30;53.10
22456;DHT22;11395;53.204;6.502;2023-02-15T05:42:34;22.40;53.00
22456;DHT22;11395;53.204;6.502;2023-02-15T05:45:00;22.50;52.70
22456;DHT22;11395;53.204;6.502;2023-02-15T05:47:27;22.60;52.50
22456;DHT22;11395;53.204;6.502;2023-02-15T05:49:53;22.70;52.30
22456;DHT22;11395;53.204;6.502;2023-02-15T05:52:19;22.90;52.40
22456;DHT22;11395;53.204;6.502;2023-02-15T05:54:45;23.00;52.20
22456;DHT22;11395;53.204;6.502;2023-02-15T05:57:11;23.00;51.80
22456;DHT22;11395;53.204;6.502;2023-02-15T05:59:37;23.20;51.80
22456;DHT22;11395;53.204;6.502;2023-02-15T06:02:04;23.30;51.80
22456;DHT22;11395;53.204;6.502;2023-02-15T06:04:32;23.40;51.80
22456;DHT22;11395;53.204;6.502;2023-02-15T06:06:58;23.40;52.00
22456;DHT22;11395;53.204;6.502;2023-02-15T06:09:24;23.50;51.50
22456;DHT22;11395;53.204;6.502;2023-02-15T06:11:50;23.60;51.40
22456;DHT22;11395;53.204;6.502;2023-02-15T06:14:16;23.60;51.40
22456;DHT22;11395;53.204;6.502;2023-02-15T06:16:43;23.60;51.20
22456;DHT22;11395;53.204;6.502;2023-02-15T06:19:09;23.70;51.30
22456;DHT22;11395;53.204;6.502;2023-02-15T06:21:35;23.70;51.30
22456;DHT22;11395;53.204;6.502;2023-02-15T06:24:01;23.70;51.00
22456;DHT22;11395;53.204;6.502;2023-02-15T06:26:27;23.70;51.90
22456;DHT22;11395;53.204;6.502;2023-02-15T06:28:54;23.70;51.50
22456;DHT22;11395;53.204;6.502;2023-02-15T06:31:20;23.70;51.50
22456;DHT22;11395;53.204;6.502;2023-02-15T06:33:46;23.70;51.70
22456;DHT22;11395;53.204;6.502;2023-02-15T06:36:12;23.70;51.60
22456;DHT22;11395;53.204;6.502;2023-02-15T06:38:38;23.70;51.60
22456;DHT22;11395;53.204;6.502;2023-02-15T06:41:04;23.70;51.40
22456;DHT22;11395;53.204;6.502;2023-02-15T06:43:31;23.70;51.50
22456;DHT22;11395;53.204;6.502;2023-02-15T06:45:57;23.80;51.60
22456;DHT22;11395;53.204;6.502;2023-02-15T06:48:23;23.80;51.40
22456;DHT22;11395;53.204;6.502;2023-02-15T06:50:49;23.90;51.60
22456;DHT22;11395;53.204;6.502;2023-02-15T06:53:16;23.90;51.10
22456;DHT22;11395;53.204;6.502;2023-02-15T06:55:42;23.90;51.20
22456;DHT22;11395;53.204;6.502;2023-02-15T06:58:08;24.00;51.30
22456;DHT22;11395;53.204;6.502;2023-02-15T07:00:34;24.00;51.40
22456;DHT22;11395;53.204;6.502;2023-02-15T07:03:00;24.00;51.20
22456;DHT22;11395;53.204;6.502;2023-02-15T07:05:28;24.10;51.20
22456;DHT22;11395;53.204;6.502;2023-02-15T07:07:58;24.10;51.20
22456;DHT22;11395;53.204;6.502;2023-02-15T07:10:24;24.10;51.20
22456;DHT22;11395;53.204;6.502;2023-02-15T07:12:51;24.00;51.60
22456;DHT22;11395;53.204;6.502;2023-02-15T07:15:18;24.00;51.80
22456;DHT22;11395;53.204;6.502;2023-02-15T07:17:47;24.00;51.70
22456;DHT22;11395;53.204;6.502;2023-02-15T07:20:16;24.00;51.60
22456;DHT22;11395;53.204;6.502;2023-02-15T07:22:42;23.90;51.50
22456;DHT22;11395;53.204;6.502;2023-02-15T07:25:10;23.90;51.60
22456;DHT22;11395;53.204;6.502;2023-02-15T07:27:37;23.90;51.50
22456;DHT22;11395;53.204;6.502;2023-02-15T07:30:05;23.90;51.60
22456;DHT22;11395;53.204;6.502;2023-02-15T07:32:33;23.80;51.60
22456;DHT22;11395;53.204;6.502;2023-02-15T07:34:59;23.80;51.60
22456;DHT22;11395;53.204;6.502;2023-02-15T07:37:26;23.80;51.50
22456;DHT22;11395;53.204;6.502;2023-02-15T07:39:53;23.80;51.70
22456;DHT22;11395;53.204;6.502;2023-02-15T07:42:19;23.80;51.70
22456;DHT22;11395;53.204;6.502;2023-02-15T07:44:46;23.80;51.70
22456;DHT22;11395;53.204;6.502;2023-02-15T07:47:13;23.90;51.80
22456;DHT22;11395;53.204;6.502;2023-02-15T07:49:39;23.90;51.70
22456;DHT22;11395;53.204;6.502;2023-02-15T07:52:05;24.00;51.70
22456;DHT22;11395;53.204;6.502;2023-02-15T07:54:31;24.00;51.60
22456;DHT22;11395;53.204;6.502;2023-02-15T07:56:58;24.10;51.60
22456;DHT22;11395;53.204;6.502;2023-02-15T07:59:24;24.10;51.40
22456;DHT22;11395;53.204;6.502;2023-02-15T08:01:50;24.20;51.30
22456;DHT22;11395;53.204;6.502;2023-02-15T08:04:18;24.20;51.10
22456;DHT22;11395;53.204;6.502;2023-02-15T08:06:44;24.20;51.50
22456;DHT22;11395;53.204;6.502;2023-02-15T08:09:11;24.20;51.40
22456;DHT22;11395;53.204;6.502;2023-02-15T08:11:38;24.20;51.50
22456;DHT22;11395;53.204;6.502;2023-02-15T08:14:11;24.20;51.20
22456;DHT22;11395;53.204;6.502;2023-02-15T08:19:08;24.20;51.10
22456;DHT22;11395;53.204;6.502;2023-02-15T08:21:36;24.20;51.20
22456;DHT22;11395;53.204;6.502;2023-02-15T08:24:03;24.20;51.20
22456;DHT22;11395;53.204;6.502;2023-02-15T08:26:30;24.20;51.20
22456;DHT22;11395;53.204;6.502;2023-02-15T08:28:58;24.20;51.20
22456;DHT22;11395;53.204;6.502;2023-02-15T08:31:24;24.20;51.10
22456;DHT22;11395;53.204;6.502;2023-02-15T08:33:52;24.20;51.10
22456;DHT22;11395;53.204;6.502;2023-02-15T08:36:21;24.20;51.10
22456;DHT22;11395;53.204;6.502;2023-02-15T08:38:48;24.10;50.80
22456;DHT22;11395;53.204;6.502;2023-02-15T08:43:47;24.10;51.00
22456;DHT22;11395;53.204;6.502;2023-02-15T08:46:15;24.10;50.80
22456;DHT22;11395;53.204;6.502;2023-02-15T08:48:41;24.00;51.10
22456;DHT22;11395;53.204;6.502;2023-02-15T08:51:16;24.00;51.10
22456;DHT22;11395;53.204;6.502;2023-02-15T08:53:46;24.00;51.10
22456;DHT22;11395;53.204;6.502;2023-02-15T08:56:16;24.00;51.10
22456;DHT22;11395;53.204;6.502;2023-02-15T08:58:42;24.00;51.20
22456;DHT22;11395;53.204;6.502;2023-02-15T09:01:13;24.10;51.30
22456;DHT22;11395;53.204;6.502;2023-02-15T09:03:44;24.10;51.30
22456;DHT22;11395;53.204;6.502;2023-02-15T09:06:11;24.20;51.40
22456;DHT22;11395;53.204;6.502;2023-02-15T09:08:38;24.30;51.40
22456;DHT22;11395;53.204;6.502;2023-02-15T09:11:08;24.40;51.20
22456;DHT22;11395;53.204;6.502;2023-02-15T09:13:36;24.40;51.10
22456;DHT22;11395;53.204;6.502;2023-02-15T09:16:04;24.50;51.00
22456;DHT22;11395;53.204;6.502;2023-02-15T09:18:33;24.60;50.80
22456;DHT22;11395;53.204;6.502;2023-02-15T09:21:09;24.60;50.80
22456;DHT22;11395;53.204;6.502;2023-02-15T09:23:36;24.70;51.60
22456;DHT22;11395;53.204;6.502;2023-02-15T09:26:08;24.70;50.50
22456;DHT22;11395;53.204;6.502;2023-02-15T09:28:34;24.70;50.70
22456;DHT22;11395;53.204;6.502;2023-02-15T09:31:14;24.70;50.70
22456;DHT22;11395;53.204;6.502;2023-02-15T09:33:42;24.80;50.50
22456;DHT22;11395;53.204;6.502;2023-02-15T09:36:18;24.80;50.50
22456;DHT22;11395;53.204;6.502;2023-02-15T09:38:46;24.80;50.40
22456;DHT22;11395;53.204;6.502;2023-02-15T09:43:55;24.90;50.30
22456;DHT22;11395;53.204;6.502;2023-02-15T09:49:49;24.90;50.20
22456;DHT22;11395;53.204;6.502;2023-02-15T10:00:58;24.90;50.20
22456;DHT22;11395;53.204;6.502;2023-02-15T10:03:40;24.90;50.10
22456;DHT22;11395;53.204;6.502;2023-02-15T10:06:31;24.90;49.90
22456;DHT22;11395;53.204;6.502;2023-02-15T10:12:11;24.80;50.40
22456;DHT22;11395;53.204;6.502;2023-02-15T10:15:08;24.80;50.50
22456;DHT22;11395;53.204;6.502;2023-02-15T10:26:18;24.70;50.60
22456;DHT22;11395;53.204;6.502;2023-02-15T10:34:04;24.60;50.70
22456;DHT22;11395;53.204;6.502;2023-02-15T10:45:28;24.40;51.00
22456;DHT22;11395;53.204;6.502;2023-02-15T10:51:00;24.50;51.10
22456;DHT22;11395;53.204;6.502;2023-02-15T11:01:41;24.70;51.10
22456;DHT22;11395;53.204;6.502;2023-02-15T11:06:53;24.80;51.20
22456;DHT22;11395;53.204;6.502;2023-02-15T11:09:22;24.90;51.60
22456;DHT22;11395;53.204;6.502;2023-02-15T11:11:52;24.90;50.90
22456;DHT22;11395;53.204;6.502;2023-02-15T11:14:37;25.00;50.90
22456;DHT22;11395;53.204;6.502;2023-02-15T11:17:16;25.10;50.80
22456;DHT22;11395;53.204;6.502;2023-02-15T11:19:58;25.10;50.70
22456;DHT22;11395;53.204;6.502;2023-02-15T11:22:31;25.20;50.70
22456;DHT22;11395;53.204;6.502;2023-02-15T11:25:00;25.20;50.60
22456;DHT22;11395;53.204;6.502;2023-02-15T11:27:31;25.30;50.60
22456;DHT22;11395;53.204;6.502;2023-02-15T11:30:05;25.30;50.50
22456;DHT22;11395;53.204;6.502;2023-02-15T11:32:53;25.30;50.60
22456;DHT22;11395;53.204;6.502;2023-02-15T11:35:33;25.30;50.60
22456;DHT22;11395;53.204;6.502;2023-02-15T11:38:12;25.20;50.60
22456;DHT22;11395;53.204;6.502;2023-02-15T11:40:48;25.10;50.60
22456;DHT22;11395;53.204;6.502;2023-02-15T11:43:32;25.10;51.00
22456;DHT22;11395;53.204;6.502;2023-02-15T11:46:00;25.00;51.00
22456;DHT22;11395;53.204;6.502;2023-02-15T11:48:29;24.90;50.90
22456;DHT22;11395;53.204;6.502;2023-02-15T11:50:57;24.90;51.10
22456;DHT22;11395;53.204;6.502;2023-02-15T11:53:23;24.90;51.40
22456;DHT22;11395;53.204;6.502;2023-02-15T11:55:51;24.80;51.30
22456;DHT22;11395;53.204;6.502;2023-02-15T12:01:33;24.80;51.40
22456;DHT22;11395;53.204;6.502;2023-02-15T12:04:36;24.80;51.30
22456;DHT22;11395;53.204;6.502;2023-02-15T12:07:35;24.70;52.00
22456;DHT22;11395;53.204;6.502;2023-02-15T12:12:46;24.70;51.50
22456;DHT22;11395;53.204;6.502;2023-02-15T12:15:13;24.70;51.50
22456;DHT22;11395;53.204;6.502;2023-02-15T12:17:47;24.60;51.50
22456;DHT22;11395;53.204;6.502;2023-02-15T12:22:49;24.50;51.20
22456;DHT22;11395;53.204;6.502;2023-02-15T12:25:39;24.40;51.90
22456;DHT22;11395;53.204;6.502;2023-02-15T12:30:51;24.30;52.10
22456;DHT22;11395;53.204;6.502;2023-02-15T12:36:03;24.20;52.40
22456;DHT22;11395;53.204;6.502;2023-02-15T12:38:30;24.10;52.50
22456;DHT22;11395;53.204;6.502;2023-02-15T12:43:36;24.10;52.80
22456;DHT22;11395;53.204;6.502;2023-02-15T12:48:44;23.90;53.00
22456;DHT22;11395;53.204;6.502;2023-02-15T12:51:14;23.90;53.10
22456;DHT22;11395;53.204;6.502;2023-02-15T12:53:41;23.90;53.20
22456;DHT22;11395;53.204;6.502;2023-02-15T12:56:09;23.90;53.30
22456;DHT22;11395;53.204;6.502;2023-02-15T12:58:40;23.80;53.30
22456;DHT22;11395;53.204;6.502;2023-02-15T13:01:18;23.80;53.50
22456;DHT22;11395;53.204;6.502;2023-02-15T13:04:05;23.80;53.50
22456;DHT22;11395;53.204;6.502;2023-02-15T13:06:34;23.70;53.50
22456;DHT22;11395;53.204;6.502;2023-02-15T13:09:13;23.70;53.70
22456;DHT22;11395;53.204;6.502;2023-02-15T13:11:41;23.70;53.70
22456;DHT22;11395;53.204;6.502;2023-02-15T13:14:18;23.60;53.60
22456;DHT22;11395;53.204;6.502;2023-02-15T13:16:47;23.60;53.80
22456;DHT22;11395;53.204;6.502;2023-02-15T13:19:31;23.60;53.80
22456;DHT22;11395;53.204;6.502;2023-02-15T13:22:12;23.50;53.80
22456;DHT22;11395;53.204;6.502;2023-02-15T13:24:44;23.50;53.80
22456;DHT22;11395;53.204;6.502;2023-02-15T13:27:15;23.50;53.90
22456;DHT22;11395;53.204;6.502;2023-02-15T13:29:49;23.50;54.00
22456;DHT22;11395;53.204;6.502;2023-02-15T13:32:30;23.40;54.00
22456;DHT22;11395;53.204;6.502;2023-02-15T13:35:01;23.40;54.10
22456;DHT22;11395;53.204;6.502;2023-02-15T13:38:05;23.30;54.10
22456;DHT22;11395;53.204;6.502;2023-02-15T13:40:48;23.30;54.30
22456;DHT22;11395;53.204;6.502;2023-02-15T13:43:37;23.30;54.30
22456;DHT22;11395;53.204;6.502;2023-02-15T13:48:56;23.20;54.30
22456;DHT22;11395;53.204;6.502;2023-02-15T13:51:35;23.20;54.20
22456;DHT22;11395;53.204;6.502;2023-02-15T13:54:15;23.20;54.10
22456;DHT22;11395;53.204;6.502;2023-02-15T14:00:02;23.30;54.10
22456;DHT22;11395;53.204;6.502;2023-02-15T14:03:02;23.40;54.10
22456;DHT22;11395;53.204;6.502;2023-02-15T14:05:53;23.50;54.00
22456;DHT22;11395;53.204;6.502;2023-02-15T14:11:10;23.60;53.80
22456;DHT22;11395;53.204;6.502;2023-02-15T14:16:41;23.70;53.80
22456;DHT22;11395;53.204;6.502;2023-02-15T14:22:05;23.80;53.80
22456;DHT22;11395;53.204;6.502;2023-02-15T14:24:51;23.80;53.80
22456;DHT22;11395;53.204;6.502;2023-02-15T14:27:27;23.80;53.60
22456;DHT22;11395;53.204;6.502;2023-02-15T14:30:03;23.90;53.70
22456;DHT22;11395;53.204;6.502;2023-02-15T14:32:36;23.90;53.80
22456;DHT22;11395;53.204;6.502;2023-02-15T14:35:05;23.90;53.70
22456;DHT22;11395;53.204;6.502;2023-02-15T14:43:27;23.80;53.80
22456;DHT22;11395;53.204;6.502;2023-02-15T14:48:49;23.80;53.90
22456;DHT22;11395;53.204;6.502;2023-02-15T14:54:10;23.70;54.00
22456;DHT22;11395;53.204;6.502;2023-02-15T14:56:38;23.70;54.20
22456;DHT22;11395;53.204;6.502;2023-02-15T15:01:51;23.60;54.30
22456;DHT22;11395;53.204;6.502;2023-02-15T15:04:35;23.60;54.50
22456;DHT22;11395;53.204;6.502;2023-02-15T15:07:18;23.50;54.60
22456;DHT22;11395;53.204;6.502;2023-02-15T15:09:48;23.50;54.60
22456;DHT22;11395;53.204;6.502;2023-02-15T15:14:50;23.50;54.70
22456;DHT22;11395;53.204;6.502;2023-02-15T15:25:43;23.40;55.10
22456;DHT22;11395;53.204;6.502;2023-02-15T15:42:03;23.70;55.50
22456;DHT22;11395;53.204;6.502;2023-02-15T15:50:21;23.90;55.40
22456;DHT22;11395;53.204;6.502;2023-02-15T15:52:51;23.90;55.10
22456;DHT22;11395;53.204;6.502;2023-02-15T15:55:24;23.90;55.00
22456;DHT22;11395;53.204;6.502;2023-02-15T15:57:53;23.90;55.00
22456;DHT22;11395;53.204;6.502;2023-02-15T16:00:30;24.00;55.00
22456;DHT22;11395;53.204;6.502;2023-02-15T16:02:58;24.00;54.90
22456;DHT22;11395;53.204;6.502;2023-02-15T16:05:25;24.00;54.80
22456;DHT22;11395;53.204;6.502;2023-02-15T16:07:51;24.00;54.70
22456;DHT22;11395;53.204;6.502;2023-02-15T16:12:49;24.00;54.70
22456;DHT22;11395;53.204;6.502;2023-02-15T16:15:29;24.00;54.70
22456;DHT22;11395;53.204;6.502;2023-02-15T16:17:57;24.00;54.70
22456;DHT22;11395;53.204;6.502;2023-02-15T16:20:30;23.90;54.80
22456;DHT22;11395;53.204;6.502;2023-02-15T16:23:32;23.90;54.90
22456;DHT22;11395;53.204;6.502;2023-02-15T16:28:53;23.80;55.10
22456;DHT22;11395;53.204;6.502;2023-02-15T16:31:21;23.70;55.20
22456;DHT22;11395;53.204;6.502;2023-02-15T16:33:53;23.70;56.00
22456;DHT22;11395;53.204;6.502;2023-02-15T16:36:25;23.60;55.30
22456;DHT22;11395;53.204;6.502;2023-02-15T16:41:26;23.50;55.80
22456;DHT22;11395;53.204;6.502;2023-02-15T16:43:54;23.50;56.10
22456;DHT22;11395;53.204;6.502;2023-02-15T16:48:56;23.40;56.20
22456;DHT22;11395;53.204;6.502;2023-02-15T16:51:30;23.40;56.40
22456;DHT22;11395;53.204;6.502;2023-02-15T16:54:03;23.40;56.40
22456;DHT22;11395;53.204;6.502;2023-02-15T16:56:31;23.40;56.20
22456;DHT22;11395;53.204;6.502;2023-02-15T16:58:58;23.30;56.10
22456;DHT22;11395;53.204;6.502;2023-02-15T17:01:28;23.30;56.10
22456;DHT22;11395;53.204;6.502;2023-02-15T17:04:13;23.30;56.30
22456;DHT22;11395;53.204;6.502;2023-02-15T17:06:39;23.20;56.20
22456;DHT22;11395;53.204;6.502;2023-02-15T17:09:13;23.20;56.80
22456;DHT22;11395;53.204;6.502;2023-02-15T17:11:42;23.20;56.70
22456;DHT22;11395;53.204;6.502;2023-02-15T17:16:47;23.30;56.60
22456;DHT22;11395;53.204;6.502;2023-02-15T17:21:49;23.50;56.60
22456;DHT22;11395;53.204;6.502;2023-02-15T17:24:19;23.60;56.40
22456;DHT22;11395;53.204;6.502;2023-02-15T17:26:51;23.70;56.50
22456;DHT22;11395;53.204;6.502;2023-02-15T17:31:55;23.80;56.90
22456;DHT22;11395;53.204;6.502;2023-02-15T17:34:44;23.90;56.40
22456;DHT22;11395;53.204;6.502;2023-02-15T17:37:22;23.90;56.90
22456;DHT22;11395;53.204;6.502;2023-02-15T17:39:48;24.00;56.30
22456;DHT22;11395;53.204;6.502;2023-02-15T17:42:15;24.00;56.10
22456;DHT22;11395;53.204;6.502;2023-02-15T17:44:41;24.00;56.20
22456;DHT22;11395;53.204;6.502;2023-02-15T17:47:11;24.00;56.00
22456;DHT22;11395;53.204;6.502;2023-02-15T17:49:39;24.00;56.40
22456;DHT22;11395;53.204;6.502;2023-02-15T17:52:11;24.00;56.20
22456;DHT22;11395;53.204;6.502;2023-02-15T17:54:50;24.10;56.30
22456;DHT22;11395;53.204;6.502;2023-02-15T17:57:35;24.00;56.10
22456;DHT22;11395;53.204;6.502;2023-02-15T18:00:01;24.00;56.20
22456;DHT22;11395;53.204;6.502;2023-02-15T18:02:46;24.00;56.10
22456;DHT22;11395;53.204;6.502;2023-02-15T18:05:31;23.90;55.80
22456;DHT22;11395;53.204;6.502;2023-02-15T18:08:18;23.90;55.90
22456;DHT22;11395;53.204;6.502;2023-02-15T18:11:08;23.90;56.10
22456;DHT22;11395;53.204;6.502;2023-02-15T18:13:53;23.80;56.00
22456;DHT22;11395;53.204;6.502;2023-02-15T18:16:24;23.80;56.10
22456;DHT22;11395;53.204;6.502;2023-02-15T18:18:54;23.80;56.30
22456;DHT22;11395;53.204;6.502;2023-02-15T18:21:23;23.70;56.40
22456;DHT22;11395;53.204;6.502;2023-02-15T18:23:49;23.70;56.30
22456;DHT22;11395;53.204;6.502;2023-02-15T18:26:23;23.70;56.30
22456;DHT22;11395;53.204;6.502;2023-02-15T18:28:50;23.60;56.30
22456;DHT22;11395;53.204;6.502;2023-02-15T18:31:17;23.60;56.30
22456;DHT22;11395;53.204;6.502;2023-02-15T18:33:47;23.60;56.30
22456;DHT22;11395;53.204;6.502;2023-02-15T18:36:25;23.60;56.40
22456;DHT22;11395;53.204;6.502;2023-02-15T18:38:54;23.50;56.10
22456;DHT22;11395;53.204;6.502;2023-02-15T18:41:21;23.50;55.50
22456;DHT22;11395;53.204;6.502;2023-02-15T18:43:48;23.40;56.00
22456;DHT22;11395;53.204;6.502;2023-02-15T18:46:15;23.40;55.90
22456;DHT22;11395;53.204;6.502;2023-02-15T18:48:42;23.30;56.00
22456;DHT22;11395;53.204;6.502;2023-02-15T18:51:27;23.30;56.20
22456;DHT22;11395;53.204;6.502;2023-02-15T18:53:53;23.30;56.40
22456;DHT22;11395;53.204;6.502;2023-02-15T18:56:21;23.30;57.20
22456;DHT22;11395;53.204;6.502;2023-02-15T18:58:48;23.30;57.10
22456;DHT22;11395;53.204;6.502;2023-02-15T19:01:19;23.30;57.20